createdAt,value
2019-02-23T00:02:22.424Z,98902.67
2019-02-23T00:07:25.730Z,98916.50
2019-02-23T00:12:28.930Z,98915.92
2019-02-23T00:17:32.151Z,98887.61
2019-02-23T00:22:35.219Z,98897.76
2019-02-23T00:27:40.042Z,98929.09
2019-02-23T00:32:43.410Z,98974.70
2019-02-23T00:37:48.054Z,98991.36
2019-02-23T00:42:52.365Z,98989.36
2019-02-23T00:47:55.874Z,98991.02
2019-02-23T00:52:58.981Z,99018.77
2019-02-23T00:58:02.111Z,99046.81
2019-02-23T01:03:05.291Z,98998.85
2019-02-23T01:08:08.527Z,98986.95
2019-02-23T01:13:11.810Z,99006.55
2019-02-23T01:18:15.108Z,99027.22
2019-02-23T01:23:18.455Z,98998.81
2019-02-23T01:28:21.866Z,99030.45
2019-02-23T01:33:25.061Z,99014.73
2019-02-23T01:38:28.124Z,99040.81
2019-02-23T01:43:32.129Z,99082.88
2019-02-23T01:48:35.302Z,99076.85
2019-02-23T01:53:38.951Z,99180.66
2019-02-23T01:58:43.660Z,99074.27
2019-02-23T02:03:47.084Z,99285.77
2019-02-23T02:08:50.394Z,99155.72
2019-02-23T02:13:53.854Z,99198.86
2019-02-23T02:18:57.049Z,99109.30
2019-02-23T02:24:00.456Z,99192.87
2019-02-23T02:29:04.309Z,99194.72
2019-02-23T02:34:09.458Z,99186.09
2019-02-23T02:39:14.175Z,99134.97
2019-02-23T02:44:19.108Z,99252.60
2019-02-23T02:49:22.436Z,99173.30
2019-02-23T02:54:25.589Z,99222.45
2019-02-23T02:59:30.504Z,99186.93
2019-02-23T03:04:33.946Z,99233.86
2019-02-23T03:09:37.195Z,99345.70
2019-02-23T03:14:40.878Z,99344.80
2019-02-23T03:19:44.116Z,99256.94
2019-02-23T03:24:48.833Z,99250.56
2019-02-23T03:29:52.642Z,99293.48
2019-02-23T03:34:55.826Z,99260.23
2019-02-23T03:39:58.880Z,99244.20
2019-02-23T03:45:03.411Z,99259.80
2019-02-23T03:50:06.796Z,99332.86
2019-02-23T03:55:09.970Z,99279.09
2019-02-23T04:00:13.335Z,99325.16
2019-02-23T04:05:16.553Z,99321.19
2019-02-23T04:10:19.850Z,99350.19
2019-02-23T04:15:23.107Z,99346.25
2019-02-23T04:20:26.570Z,99345.36
2019-02-23T04:25:29.778Z,99353.08
2019-02-23T04:30:32.864Z,99388.04
2019-02-23T04:35:36.055Z,99377.75
2019-02-23T04:40:39.360Z,99457.92
2019-02-23T04:45:42.777Z,99421.37
2019-02-23T04:50:46.052Z,99438.92
2019-02-23T04:55:49.311Z,99444.55
2019-02-23T05:00:52.428Z,99464.81
2019-02-23T05:05:57.137Z,99470.42
2019-02-23T05:11:01.336Z,99469.15
2019-02-23T05:16:04.534Z,99460.58
2019-02-23T05:21:07.737Z,99514.42
2019-02-23T05:26:12.488Z,99523.88
2019-02-23T05:31:15.537Z,99509.72
2019-02-23T05:36:19.703Z,99575.53
2019-02-23T05:41:22.861Z,99560.50
2019-02-23T05:46:27.622Z,99545.05
2019-02-23T05:51:38.674Z,99565.25
2019-02-23T05:56:35.784Z,99571.70
2019-02-23T06:01:39.054Z,99580.27
2019-02-23T06:06:42.826Z,99618.09
2019-02-23T06:11:46.078Z,99645.58
2019-02-23T06:16:52.935Z,99608.60
2019-02-23T06:21:56.300Z,99614.95
2019-02-23T06:27:01.056Z,99621.44
2019-02-23T06:32:05.832Z,99653.72
2019-02-23T06:37:09.664Z,99681.28
2019-02-23T06:42:12.932Z,99639.86
2019-02-23T06:47:17.184Z,99716.12
2019-02-23T06:52:20.338Z,99693.78
2019-02-23T06:57:24.334Z,99720.05
2019-02-23T07:02:27.411Z,99701.52
2019-02-23T07:07:30.933Z,99710.51
2019-02-23T07:12:33.999Z,99720.00
2019-02-23T07:17:38.657Z,99737.66
2019-02-23T07:22:42.315Z,99716.06
2019-02-23T07:27:45.657Z,99731.59
2019-02-23T07:32:48.808Z,99726.39
2019-02-23T07:37:52.886Z,99775.09
2019-02-23T07:42:56.116Z,99762.61
2019-02-23T07:48:03.692Z,99812.09
2019-02-23T07:53:06.853Z,99814.70
2019-02-23T07:58:10.072Z,99772.06
2019-02-23T08:03:13.465Z,99810.78
2019-02-23T08:08:16.653Z,99814.24
2019-02-23T08:13:21.527Z,99827.98
2019-02-23T08:18:25.130Z,99839.14
2019-02-23T08:23:28.268Z,99849.52
2019-02-23T08:28:32.497Z,99820.27
2019-02-23T08:33:37.760Z,99874.51
2019-02-23T08:38:41.131Z,99846.52
2019-02-23T08:43:45.016Z,99871.05
2019-02-23T08:48:54.565Z,99910.23
2019-02-23T08:53:58.016Z,99865.84
2019-02-23T08:59:01.119Z,99885.21
2019-02-23T09:04:04.342Z,99899.43
2019-02-23T09:09:09.054Z,99881.38
2019-02-23T09:14:12.713Z,99892.57
2019-02-23T09:19:16.289Z,99890.41
2019-02-23T09:24:20.091Z,99900.30
2019-02-23T09:29:25.795Z,99922.70
2019-02-23T09:34:28.999Z,99912.40
2019-02-23T09:39:33.557Z,99908.98
2019-02-23T09:44:37.150Z,99952.88
2019-02-23T09:49:40.333Z,99914.58
2019-02-23T09:54:43.887Z,99998.55
2019-02-23T09:59:47.068Z,99941.69
2019-02-23T10:04:50.425Z,99939.09
2019-02-23T10:09:53.535Z,99923.16
2019-02-23T10:14:59.071Z,100002.86
2019-02-23T10:20:03.259Z,99941.71
2019-02-23T10:25:10.105Z,99917.55
2019-02-23T10:30:13.627Z,99941.68
2019-02-23T10:35:17.010Z,100003.73
2019-02-23T10:40:21.612Z,99948.56
2019-02-23T10:45:25.031Z,99989.91
2019-02-23T10:50:29.344Z,100008.47
2019-02-23T10:55:34.911Z,100025.70
2019-02-23T11:00:39.502Z,99998.12
2019-02-23T11:05:42.928Z,100013.20
2019-02-23T11:10:46.911Z,99998.55
2019-02-23T11:15:50.460Z,100011.03
2019-02-23T11:20:53.821Z,100013.59
2019-02-23T11:26:03.575Z,100010.14
2019-02-23T11:31:07.132Z,100023.93
2019-02-23T11:36:10.325Z,100015.75
2019-02-23T11:41:15.190Z,100024.37
2019-02-23T11:46:20.960Z,100011.39
2019-02-23T11:51:26.365Z,100014.45
2019-02-23T11:56:31.270Z,100020.07
2019-02-23T12:01:36.225Z,100017.02
2019-02-23T12:06:40.976Z,99995.89
2019-02-23T12:11:44.256Z,100027.32
2019-02-23T12:16:50.795Z,100010.10
2019-02-23T12:21:53.990Z,100035.55
2019-02-23T12:26:57.962Z,100037.70
2019-02-23T12:32:01.376Z,100037.22
2019-02-23T12:37:04.593Z,100050.63
2019-02-23T12:42:07.948Z,100069.14
2019-02-23T12:47:11.607Z,100055.41
2019-02-23T12:52:16.268Z,100073.08
2019-02-23T12:57:19.713Z,100069.22
2019-02-23T13:02:23.672Z,100060.59
2019-02-23T13:07:26.959Z,100067.47
2019-02-23T13:13:14.797Z,100064.41
2019-02-23T13:19:23.706Z,100078.63
2019-02-23T13:25:08.948Z,100064.45
2019-02-23T13:31:03.170Z,100070.06
2019-02-23T13:41:23.640Z,100098.51
2019-02-23T13:47:09.480Z,100093.38
2019-02-23T13:52:57.835Z,100089.88
2019-02-23T13:58:07.131Z,100112.31
2019-02-23T14:03:48.513Z,100112.33
2019-02-23T14:09:29.026Z,100109.30
2019-02-23T14:15:41.490Z,100122.67
2019-02-23T14:21:16.094Z,100131.30
2019-02-23T14:26:30.721Z,100154.59
2019-02-23T14:32:09.116Z,100122.25
2019-02-23T14:37:25.579Z,100134.75
2019-02-23T14:42:59.176Z,100134.77
2019-02-23T14:48:45.569Z,100148.14
2019-02-23T14:54:28.230Z,100137.80
2019-02-23T14:59:41.952Z,100149.00
2019-02-23T15:11:33.976Z,100157.62
2019-02-23T15:23:41.593Z,100164.11
2019-02-23T15:29:25.542Z,100181.36
2019-02-23T15:34:57.565Z,100180.91
2019-02-23T15:40:35.935Z,100175.30
2019-02-23T15:46:09.403Z,100167.11
2019-02-23T15:51:12.232Z,100184.80
2019-02-23T15:56:14.881Z,100193.41
2019-02-23T16:01:19.699Z,100215.42
2019-02-23T16:06:22.852Z,100218.02
2019-02-23T16:11:26.032Z,100222.31
2019-02-23T16:16:29.414Z,100238.23
2019-02-23T16:21:32.342Z,100231.38
2019-02-23T16:26:35.548Z,100227.08
2019-02-23T16:31:43.559Z,100255.99
2019-02-23T16:36:58.962Z,100245.20
2019-02-23T16:42:04.363Z,100292.23
2019-02-23T16:47:10.357Z,100269.33
2019-02-23T16:52:14.182Z,100262.86
2019-02-23T16:57:17.675Z,100262.86
2019-02-23T17:02:36.215Z,100276.67
2019-02-23T17:08:25.632Z,100265.00
2019-02-23T17:13:33.323Z,100279.69
2019-02-23T17:30:19.360Z,100294.39
2019-02-23T17:35:22.995Z,100274.08
2019-02-23T17:41:26.706Z,100284.45
2019-02-23T17:46:32.897Z,100284.89
2019-02-23T17:51:59.233Z,100305.64
2019-02-23T17:57:08.996Z,100275.81
2019-02-23T18:02:27.721Z,100286.19
2019-02-23T18:07:34.360Z,100298.67
2019-02-23T18:12:41.128Z,100315.93
2019-02-23T18:17:51.805Z,100305.98
2019-02-23T18:29:42.253Z,100306.38
2019-02-23T18:35:10.537Z,100306.39
2019-02-23T18:40:16.464Z,100309.00
2019-02-23T18:45:30.877Z,100334.43
2019-02-23T18:50:59.383Z,100329.25
2019-02-23T18:56:08.087Z,100349.97
2019-02-23T19:01:15.003Z,100363.31
2019-02-23T19:06:44.831Z,100377.15
2019-02-23T19:11:50.616Z,100384.42
2019-02-23T19:17:06.340Z,100365.42
2019-02-23T19:22:36.996Z,100369.28
2019-02-23T19:27:54.724Z,100363.23
2019-02-23T19:33:10.798Z,100380.88
2019-02-23T19:39:13.161Z,100368.84
2019-02-23T19:44:26.156Z,100366.67
2019-02-23T19:49:59.458Z,100387.40
2019-02-23T19:55:53.844Z,100372.29
2019-02-23T20:01:36.410Z,100386.49
2019-02-23T20:06:47.221Z,100378.30
2019-02-23T20:11:53.548Z,100384.69
2019-02-23T20:17:19.910Z,100379.94
2019-02-23T20:22:38.994Z,100378.20
2019-02-23T21:11:45.541Z,100377.95
2019-02-23T21:18:04.008Z,100362.92
2019-02-23T21:30:30.256Z,100368.41
2019-02-23T21:49:14.169Z,100367.05
2019-02-23T22:07:42.518Z,100391.05
